Time;durP1;ratioP1;P1;durP2;ratioP2;P2;SDS_P1;SDS_P2;PMS_P1;PMS_P2;Temp;Humidity;BMP_temperature;BMP_pressure;BME280_temperature;BME280_humidity;BME280_pressure;Samples;Min_cycle;Max_cycle;Signal;HPM_P1;HPM_P2
2023/04/02 00:00:27;;;;;;;23.65;15.27;;;26.10;99.90;;;;;;5102761;28;20019;-71
2023/04/02 00:02:55;;;;;;;22.60;15.13;;;26.10;99.90;;;;;;5102173;28;20028;-72
2023/04/02 00:05:48;;;;;;;33.78;17.52;;;26.10;99.90;;;;;;5102309;28;20024;-70
2023/04/02 00:08:37;;;;;;;22.92;16.15;;;26.10;99.90;;;;;;5099726;28;20505;-72
2023/04/02 00:11:04;;;;;;;29.67;17.13;;;26.10;99.90;;;;;;5102123;28;20024;-71
2023/04/02 00:13:46;;;;;;;26.75;17.50;;;26.10;99.90;;;;;;5101513;28;20111;-71
2023/04/02 00:16:17;;;;;;;51.83;19.55;;;26.00;99.90;;;;;;5098882;28;20035;-71
2023/04/02 00:18:49;;;;;;;35.13;18.88;;;26.00;99.90;;;;;;5101514;28;20465;-70
2023/04/02 00:21:20;;;;;;;25.73;18.08;;;26.10;99.90;;;;;;5099722;28;20039;-71
2023/04/02 00:23:47;;;;;;;27.15;18.17;;;26.10;99.90;;;;;;5101253;28;20024;-71
2023/04/02 00:26:37;;;;;;;34.17;16.55;;;26.10;99.90;;;;;;5102915;28;20182;-72
2023/04/02 00:29:05;;;;;;;23.80;16.65;;;26.10;99.90;;;;;;5101798;28;20389;-71
2023/04/02 00:31:33;;;;;;;23.20;16.05;;;26.10;99.90;;;;;;5098606;28;20390;-72
2023/04/02 00:34:03;;;;;;;21.30;15.45;;;26.10;99.90;;;;;;5101995;28;20022;-71
2023/04/02 00:36:33;;;;;;;24.42;16.65;;;26.00;99.90;;;;;;5103294;28;20024;-71
2023/04/02 00:39:03;;;;;;;26.75;16.27;;;26.00;99.90;;;;;;5098491;28;20523;-71
2023/04/02 00:41:34;;;;;;;28.33;16.40;;;26.10;99.90;;;;;;5095662;28;20146;-71
2023/04/02 00:44:01;;;;;;;20.58;13.77;;;26.10;99.90;;;;;;5095771;28;20009;-70
2023/04/02 00:46:45;;;;;;;87.57;28.02;;;26.10;99.90;;;;;;5096033;28;20032;-71
2023/04/02 00:49:35;;;;;;;25.20;17.23;;;26.10;99.90;;;;;;5061767;28;20098;-72
2023/04/02 00:52:06;;;;;;;20.08;15.95;;;26.10;99.90;;;;;;5087141;28;20020;-71
2023/04/02 00:54:42;;;;;;;25.17;17.58;;;26.10;99.90;;;;;;5056192;28;20557;-70
2023/04/02 00:57:16;;;;;;;24.75;17.27;;;26.20;99.90;;;;;;5056280;28;20047;-71
2023/04/02 01:00:07;;;;;;;27.75;18.95;;;26.20;99.90;;;;;;5055952;28;20594;-71
2023/04/02 01:02:37;;;;;;;25.38;19.08;;;26.20;99.90;;;;;;5051543;28;20158;-72
2023/04/02 01:05:22;;;;;;;28.65;18.23;;;26.30;99.90;;;;;;5056138;28;20486;-71
2023/04/02 01:08:02;;;;;;;25.15;18.05;;;26.40;99.90;;;;;;5056158;28;20025;-70
2023/04/02 01:10:49;;;;;;;20.83;18.27;;;26.40;99.90;;;;;;5055996;28;20099;-71
2023/04/02 01:13:36;;;;;;;24.73;17.10;;;26.40;99.90;;;;;;5055803;28;20075;-71
2023/04/02 01:16:24;;;;;;;288.73;84.18;;;26.40;99.90;;;;;;5054500;28;20464;-71
2023/04/02 01:19:12;;;;;;;35.10;23.05;;;26.50;99.90;;;;;;5049982;28;20068;-71
2023/04/02 01:21:41;;;;;;;30.48;23.25;;;26.50;99.90;;;;;;5055247;28;20029;-71
2023/04/02 01:24:11;;;;;;;28.02;21.77;;;26.50;99.90;;;;;;5055755;28;20364;-71
2023/04/02 01:26:59;;;;;;;26.10;23.30;;;26.50;99.90;;;;;;5055670;28;20414;-71
2023/04/02 01:29:26;;;;;;;35.42;27.88;;;26.50;99.90;;;;;;5056007;28;20395;-71
2023/04/02 01:31:55;;;;;;;31.55;26.92;;;26.50;99.90;;;;;;5066421;28;20027;-71
2023/04/02 01:34:25;;;;;;;36.30;32.53;;;26.50;99.90;;;;;;5055457;28;20501;-71
2023/04/02 01:36:54;;;;;;;33.75;30.25;;;26.50;99.90;;;;;;5055560;28;20037;-73
2023/04/02 01:39:25;;;;;;;36.35;32.13;;;26.50;99.90;;;;;;5068062;28;20367;-70
2023/04/02 01:42:00;;;;;;;44.20;39.22;;;26.60;99.90;;;;;;5092604;28;20047;-69
2023/04/02 01:44:42;;;;;;;51.90;46.17;;;26.70;99.90;;;;;;5094475;28;20012;-70
2023/04/02 01:47:14;;;;;;;56.75;50.60;;;26.60;99.90;;;;;;5093217;28;20020;-70
2023/04/02 01:49:43;;;;;;;57.70;51.63;;;26.60;99.90;;;;;;5094573;28;20386;-69
2023/04/02 01:52:17;;;;;;;58.45;51.88;;;26.70;99.90;;;;;;5094022;28;20382;-69
2023/04/02 01:54:46;;;;;;;62.97;54.60;;;26.70;99.90;;;;;;5094182;28;20035;-69
2023/04/02 01:57:13;;;;;;;61.95;54.88;;;26.80;99.90;;;;;;5088969;28;20382;-69
2023/04/02 01:59:40;;;;;;;58.60;50.53;;;26.90;99.90;;;;;;5093862;28;20514;-70
2023/04/02 02:02:11;;;;;;;48.67;43.65;;;27.00;99.90;;;;;;5094021;28;20040;-70
2023/04/02 02:04:38;;;;;;;54.72;44.78;;;27.00;99.90;;;;;;5090125;28;20024;-70
2023/04/02 02:07:09;;;;;;;48.28;42.92;;;27.00;99.90;;;;;;5094056;28;20020;-70
2023/04/02 02:09:36;;;;;;;45.45;37.83;;;27.10;99.90;;;;;;5089308;28;20020;-72
2023/04/02 02:12:04;;;;;;;54.13;43.83;;;27.00;99.90;;;;;;5089004;28;20041;-69
2023/04/02 02:14:31;;;;;;;53.28;44.00;;;27.00;99.90;;;;;;5083887;28;20853;-71
2023/04/02 02:17:01;;;;;;;43.70;38.97;;;27.00;99.90;;;;;;5085138;28;20032;-71
2023/04/02 02:19:41;;;;;;;38.92;34.53;;;27.00;99.90;;;;;;5087512;28;20020;-73
2023/04/02 02:22:21;;;;;;;36.08;32.35;;;27.10;99.90;;;;;;5077513;28;20382;-70
2023/04/02 02:24:48;;;;;;;39.97;29.83;;;27.20;99.90;;;;;;5086317;28;20020;-71
2023/04/02 02:27:38;;;;;;;35.08;30.33;;;27.20;99.90;;;;;;5090047;28;20042;-71
2023/04/02 02:30:16;;;;;;;34.45;29.42;;;27.30;99.90;;;;;;5092491;28;20052;-72
2023/04/02 02:32:57;;;;;;;32.40;27.98;;;27.30;99.90;;;;;;5093418;28;20112;-72
2023/04/02 02:35:55;;;;;;;31.27;25.88;;;27.40;99.90;;;;;;5092120;28;20024;-72
2023/04/02 02:38:25;;;;;;;31.75;26.17;;;27.40;99.90;;;;;;5053645;28;20100;-71
2023/04/02 02:40:57;;;;;;;30.48;26.00;;;27.30;99.90;;;;;;5078302;28;20021;-72
2023/04/02 02:43:23;;;;;;;;;;;27.40;99.90;;;;;;5088487;28;20024;-75
2023/04/02 02:45:52;;;;;;;32.40;25.95;;;27.50;99.90;;;;;;5085401;28;20316;-72
2023/04/02 02:48:23;;;;;;;26.95;23.35;;;27.50;99.90;;;;;;5093101;28;20108;-72
2023/04/02 02:50:50;;;;;;;30.83;26.15;;;27.50;99.90;;;;;;5081607;28;20420;-71
2023/04/02 02:53:25;;;;;;;32.45;26.77;;;27.60;99.90;;;;;;5089934;28;20485;-71
2023/04/02 02:55:58;;;;;;;30.65;24.95;;;27.60;99.90;;;;;;5079722;28;20024;-72
2023/04/02 02:58:30;;;;;;;32.70;25.23;;;27.70;99.90;;;;;;5092090;28;20090;-71
2023/04/02 03:00:56;;;;;;;;;;;27.70;99.90;;;;;;5093100;28;20020;-72
2023/04/02 03:03:26;;;;;;;25.27;22.13;;;27.70;99.90;;;;;;5083682;28;19908;-71
2023/04/02 03:05:57;;;;;;;27.65;23.13;;;27.70;99.90;;;;;;5085545;28;20039;-72
2023/04/02 03:08:50;;;;;;;28.10;23.52;;;27.80;99.90;;;;;;5093149;28;20484;-71
2023/04/02 03:11:25;;;;;;;30.50;25.02;;;27.80;99.90;;;;;;5090617;28;20474;-71
2023/04/02 03:13:58;;;;;;;29.13;24.70;;;27.80;99.90;;;;;;5088320;28;20023;-71
2023/04/02 03:16:37;;;;;;;31.38;25.95;;;27.80;99.90;;;;;;5085129;28;20386;-74
2023/04/02 03:19:43;;;;;;;33.78;27.88;;;27.80;99.90;;;;;;5083120;28;20025;-74
2023/04/02 03:22:15;;;;;;;30.02;25.35;;;27.90;99.90;;;;;;5066499;28;20037;-74
2023/04/02 03:25:04;;;;;;;29.63;24.35;;;27.90;99.90;;;;;;5077904;28;20024;-72
2023/04/02 03:27:35;;;;;;;30.80;24.40;;;28.10;99.90;;;;;;5091324;28;20405;-74
2023/04/02 03:30:24;;;;;;;27.52;23.05;;;28.20;99.90;;;;;;5094245;28;20031;-74
2023/04/02 03:32:56;;;;;;;25.73;20.88;;;28.30;99.90;;;;;;5094263;28;20020;-77
2023/04/02 03:35:29;;;;;;;;;;;28.40;99.90;;;;;;5094292;28;20390;-76
2023/04/02 03:38:03;;;;;;;25.42;19.55;;;28.40;99.90;;;;;;5094813;28;20366;-72
2023/04/02 03:40:40;;;;;;;24.85;22.15;;;28.40;99.90;;;;;;5094786;28;20089;-75
2023/04/02 03:43:24;;;;;;;31.38;20.35;;;28.50;99.90;;;;;;5086640;28;20090;-74
2023/04/02 03:45:57;;;;;;;22.17;19.75;;;28.50;99.90;;;;;;5074768;28;20020;-76
2023/04/02 03:48:28;;;;;;;24.05;21.55;;;28.50;99.90;;;;;;5073792;28;20464;-73
2023/04/02 03:51:05;;;;;;;23.20;18.38;;;28.50;99.90;;;;;;5074612;28;20031;-72
2023/04/02 03:53:32;;;;;;;27.25;20.98;;;28.60;99.90;;;;;;5074737;28;20074;-69
2023/04/02 03:56:01;;;;;;;27.40;21.23;;;28.70;99.90;;;;;;5069949;28;20056;-72
2023/04/02 03:58:45;;;;;;;27.35;20.00;;;28.70;99.90;;;;;;5068303;28;20048;-72
2023/04/02 04:01:35;;;;;;;18.02;15.93;;;28.80;99.90;;;;;;5073934;28;20450;-72
2023/04/02 04:04:09;;;;;;;22.33;15.32;;;28.90;99.90;;;;;;5053345;28;20382;-72
2023/04/02 04:06:40;;;;;;;18.75;16.77;;;29.00;99.90;;;;;;5055142;28;20432;-72
2023/04/02 04:09:14;;;;;;;23.17;17.08;;;29.10;99.90;;;;;;5073240;28;20024;-71
2023/04/02 04:11:55;;;;;;;20.65;14.80;;;29.30;99.90;;;;;;5056391;28;20111;-72
2023/04/02 04:14:45;;;;;;;18.30;15.40;;;29.40;99.90;;;;;;5065993;28;20122;-70
2023/04/02 04:17:22;;;;;;;18.73;14.68;;;29.40;99.90;;;;;;5078470;28;20032;-71
2023/04/02 04:19:53;;;;;;;22.38;14.93;;;29.40;99.90;;;;;;5078303;28;20368;-70
2023/04/02 04:22:34;;;;;;;20.37;12.63;;;29.50;99.90;;;;;;5078255;28;20467;-74
2023/04/02 04:25:06;;;;;;;13.88;12.38;;;29.60;99.90;;;;;;5078785;28;20059;-71
2023/04/02 04:27:34;;;;;;;;;;;29.70;99.90;;;;;;5078846;28;20016;-73
2023/04/02 04:30:06;;;;;;;21.35;14.18;;;29.70;99.90;;;;;;5077013;28;19950;-76
2023/04/02 04:32:37;;;;;;;15.00;13.40;;;29.70;99.90;;;;;;5077847;28;20118;-71
2023/04/02 04:35:16;;;;;;;14.13;12.68;;;29.70;99.90;;;;;;5078181;28;20024;-72
2023/04/02 04:37:48;;;;;;;14.98;12.05;;;29.80;99.90;;;;;;5080542;28;20020;-69
2023/04/02 04:40:22;;;;;;;17.83;11.35;;;29.80;99.90;;;;;;5092710;28;20078;-70
2023/04/02 04:42:53;;;;;;;14.80;12.20;;;29.80;99.90;;;;;;5097942;28;20107;-70
2023/04/02 04:45:43;;;;;;;12.50;10.70;;;29.80;99.90;;;;;;5098031;28;20432;-70
2023/04/02 04:48:21;;;;;;;15.40;12.43;;;29.90;99.90;;;;;;5097442;28;20020;-71
2023/04/02 04:50:54;;;;;;;15.50;11.52;;;29.90;99.90;;;;;;5097701;28;20016;-74
2023/04/02 04:53:23;;;;;;;13.45;11.60;;;29.90;99.90;;;;;;5097075;28;20012;-69
2023/04/02 04:55:55;;;;;;;13.13;10.25;;;29.90;99.90;;;;;;5097325;28;20012;-69
2023/04/02 04:58:24;;;;;;;12.55;10.98;;;30.00;99.90;;;;;;5089708;28;20074;-72
2023/04/02 05:01:10;;;;;;;12.90;10.05;;;30.00;99.90;;;;;;5097067;28;20099;-71
2023/04/02 05:03:44;;;;;;;11.02;9.48;;;30.10;99.90;;;;;;5081071;28;20446;-72
2023/04/02 05:06:17;;;;;;;13.00;9.48;;;30.20;99.90;;;;;;5096623;28;20133;-69
2023/04/02 05:08:48;;;;;;;12.38;9.43;;;30.20;99.90;;;;;;5078991;28;20394;-71
2023/04/02 05:11:26;;;;;;;10.93;9.50;;;30.30;99.90;;;;;;5097098;28;20431;-70
2023/04/02 05:14:01;;;;;;;12.43;9.40;;;30.40;99.90;;;;;;5097247;28;20073;-70
2023/04/02 05:16:36;;;;;;;11.95;10.02;;;30.50;99.90;;;;;;5097055;28;20032;-70
2023/04/02 05:19:08;;;;;;;10.48;9.32;;;30.50;99.90;;;;;;5097434;28;20028;-72
2023/04/02 05:21:49;;;;;;;12.60;10.50;;;30.60;99.90;;;;;;5094768;28;20020;-70
2023/04/02 05:24:35;;;;;;;11.40;9.50;;;30.70;99.90;;;;;;5073266;28;20023;-70
2023/04/02 05:27:25;;;;;;;15.20;9.98;;;30.90;99.90;;;;;;5070368;28;20028;-70
2023/04/02 05:30:22;;;;;;;12.40;9.52;;;30.90;99.90;;;;;;5050688;28;20056;-71
2023/04/02 05:33:18;;;;;;;14.25;9.30;;;31.00;99.90;;;;;;5092144;28;20090;-70
2023/04/02 05:35:50;;;;;;;9.75;8.40;;;31.00;99.90;;;;;;5092196;28;20050;-72
2023/04/02 05:38:21;;;;;;;;;;;31.10;99.90;;;;;;5091866;28;20024;-69
2023/04/02 05:40:58;;;;;;;10.93;8.90;;;31.10;99.90;;;;;;5095787;28;19966;-70
2023/04/02 05:43:27;;;;;;;13.05;8.80;;;31.10;99.90;;;;;;5088976;28;20027;-71
2023/04/02 05:45:58;;;;;;;11.35;8.98;;;31.20;99.90;;;;;;5090159;28;20049;-70
2023/04/02 05:48:27;;;;;;;12.37;8.97;;;31.20;99.90;;;;;;5095149;22;20579;-69
2023/04/02 05:50:57;;;;;;;14.98;9.18;;;31.20;99.90;;;;;;5043816;28;20037;-70
2023/04/02 05:54:04;;;;;;;12.63;9.27;;;31.30;99.90;;;;;;5045624;28;20036;-71
2023/04/02 05:56:41;;;;;;;10.77;8.95;;;31.40;99.90;;;;;;5044063;28;20033;-71
2023/04/02 05:59:24;;;;;;;12.43;9.70;;;31.40;99.90;;;;;;5045928;28;20037;-71
2023/04/02 06:02:01;;;;;;;11.88;10.02;;;31.50;99.90;;;;;;5046723;28;20031;-75
2023/04/02 06:04:36;;;;;;;12.40;9.70;;;31.60;99.90;;;;;;5045962;28;20032;-74
2023/04/02 06:07:09;;;;;;;13.98;11.77;;;31.60;99.90;;;;;;5045517;28;20032;-75
2023/04/02 06:09:46;;;;;;;12.13;10.27;;;31.60;99.90;;;;;;5050561;28;20021;-76
2023/04/02 06:12:26;;;;;;;15.82;11.95;;;31.50;99.90;;;;;;5041502;28;20091;-75
2023/04/02 06:14:53;;;;;;;15.18;13.13;;;31.50;99.90;;;;;;5046619;28;20049;-77
2023/04/02 06:17:21;;;;;;;20.63;14.68;;;31.50;99.90;;;;;;5044832;28;20017;-74
2023/04/02 06:19:48;;;;;;;11.35;10.18;;;31.50;99.90;;;;;;5044666;28;20029;-76
2023/04/02 06:22:37;;;;;;;14.23;11.05;;;31.50;99.90;;;;;;5043859;28;20017;-76
2023/04/02 06:25:09;;;;;;;13.05;10.25;;;31.50;99.90;;;;;;5044911;28;20013;-76
2023/04/02 06:27:37;;;;;;;13.00;10.70;;;31.50;99.90;;;;;;5043905;28;20468;-76
2023/04/02 06:30:13;;;;;;;16.52;10.82;;;31.50;99.90;;;;;;5042600;28;20104;-75
2023/04/02 06:32:40;;;;;;;13.20;11.05;;;31.60;99.90;;;;;;5044251;28;20021;-76
2023/04/02 06:35:12;;;;;;;12.77;10.50;;;31.70;99.90;;;;;;5042727;28;20014;-76
2023/04/02 06:37:43;;;;;;;15.20;11.98;;;31.70;99.90;;;;;;5044250;28;20031;-76
2023/04/02 06:40:33;;;;;;;17.20;11.13;;;31.60;99.90;;;;;;5040536;28;20112;-78
2023/04/02 06:43:07;;;;;;;13.75;11.65;;;31.60;99.90;;;;;;5042805;28;20021;-78
2023/04/02 06:45:38;;;;;;;23.80;15.32;;;31.60;99.90;;;;;;5021365;28;20025;-78
2023/04/02 06:48:07;;;;;;;21.95;13.85;;;31.60;99.90;;;;;;5043113;28;20087;-74
2023/04/02 06:50:49;;;;;;;23.42;15.40;;;31.60;99.90;;;;;;5043763;28;20021;-75
2023/04/02 06:53:21;;;;;;;;;;;31.60;99.90;;;;;;5043224;28;20025;-75
2023/04/02 06:56:18;;;;;;;16.98;12.00;;;31.70;99.90;;;;;;5041979;28;19912;-74
2023/04/02 06:58:45;;;;;;;12.82;11.23;;;31.70;99.90;;;;;;5035443;28;20029;-76
2023/04/02 07:01:21;;;;;;;15.43;11.15;;;31.70;99.90;;;;;;5039871;28;20014;-75
2023/04/02 07:03:47;;;;;;;12.73;11.07;;;31.80;99.90;;;;;;5041755;28;20029;-76
2023/04/02 07:06:17;;;;;;;14.60;11.40;;;31.80;99.90;;;;;;5042656;28;20106;-75
2023/04/02 07:08:44;;;;;;;14.50;11.23;;;31.80;99.90;;;;;;5040345;28;20049;-77
2023/04/02 07:11:15;;;;;;;14.90;11.35;;;31.90;99.90;;;;;;5022642;28;20021;-75
2023/04/02 07:13:43;;;;;;;17.75;12.90;;;31.80;99.90;;;;;;5038676;28;20033;-73
2023/04/02 07:16:19;;;;;;;18.20;15.27;;;31.80;99.90;;;;;;5040549;28;20078;-76
2023/04/02 07:18:46;;;;;;;12.32;10.77;;;31.80;99.90;;;;;;5037758;28;20029;-76
2023/04/02 07:21:13;;;;;;;14.85;10.52;;;32.00;99.90;;;;;;5034967;28;20036;-74
2023/04/02 07:23:40;;;;;;;12.07;8.63;;;32.10;99.90;;;;;;5033892;28;20021;-74
2023/04/02 07:26:12;;;;;;;17.27;13.77;;;32.20;99.90;;;;;;5042151;28;20071;-74
2023/04/02 07:28:38;;;;;;;19.65;14.38;;;32.30;99.90;;;;;;5039123;28;20447;-71
2023/04/02 07:31:16;;;;;;;12.82;10.38;;;32.40;99.90;;;;;;5037964;28;20059;-76
2023/04/02 07:33:43;;;;;;;14.45;10.45;;;32.50;99.90;;;;;;5031345;28;20021;-76
2023/04/02 07:36:14;;;;;;;14.60;8.90;;;32.50;99.90;;;;;;5033236;28;20032;-74
2023/04/02 07:38:41;;;;;;;12.43;8.90;;;32.70;99.90;;;;;;5041913;28;20026;-74
2023/04/02 07:41:08;;;;;;;12.55;8.45;;;32.70;99.90;;;;;;5043426;28;20045;-75
2023/04/02 07:43:35;;;;;;;9.57;8.05;;;32.60;99.90;;;;;;5043557;28;20064;-74
2023/04/02 07:46:03;;;;;;;11.57;9.77;;;32.50;99.90;;;;;;5044070;28;20017;-73
2023/04/02 07:48:30;;;;;;;12.52;10.48;;;32.50;99.90;;;;;;5044117;28;20496;-72
2023/04/02 07:50:57;;;;;;;20.40;16.15;;;32.60;99.90;;;;;;5041623;28;20116;-73
2023/04/02 07:53:34;;;;;;;19.10;14.32;;;32.50;99.90;;;;;;5042521;28;20048;-73
2023/04/02 07:56:02;;;;;;;17.92;13.77;;;32.50;99.90;;;;;;5042213;28;20470;-75
2023/04/02 07:58:30;;;;;;;13.02;9.15;;;32.50;99.90;;;;;;5042950;28;20032;-74
2023/04/02 08:00:57;;;;;;;11.70;9.65;;;32.50;99.90;;;;;;5026262;28;20127;-73
2023/04/02 08:03:24;;;;;;;10.77;8.68;;;32.50;99.90;;;;;;5042554;28;20103;-73
2023/04/02 08:05:54;;;;;;;14.90;9.35;;;32.50;99.90;;;;;;5041757;28;20131;-73
2023/04/02 08:08:22;;;;;;;13.02;8.68;;;32.50;99.90;;;;;;5041096;28;20122;-72
2023/04/02 08:10:49;;;;;;;10.45;8.25;;;32.50;99.90;;;;;;5037546;28;20033;-73
2023/04/02 08:13:17;;;;;;;8.90;7.90;;;32.60;99.90;;;;;;5039242;28;20028;-75
2023/04/02 08:15:44;;;;;;;11.52;8.77;;;32.70;99.90;;;;;;5040941;28;20014;-75
2023/04/02 08:18:11;;;;;;;11.63;8.85;;;32.60;99.90;;;;;;5031001;28;20369;-67
2023/04/02 08:20:38;;;;;;;8.95;7.65;;;32.60;99.90;;;;;;5030412;28;20025;-66
2023/04/02 08:23:12;;;;;;;14.20;8.85;;;32.60;99.90;;;;;;5031440;28;20112;-66
2023/04/02 08:25:38;;;;;;;12.55;11.30;;;32.60;99.90;;;;;;5032342;28;20282;-67
2023/04/02 08:28:05;;;;;;;25.48;19.05;;;32.60;99.90;;;;;;5040504;28;20449;-68
2023/04/02 08:30:31;;;;;;;18.48;12.77;;;32.50;99.90;;;;;;5032590;28;20018;-67
2023/04/02 08:32:58;;;;;;;9.52;8.13;;;32.50;99.90;;;;;;5034299;28;20426;-67
2023/04/02 08:35:25;;;;;;;12.38;8.45;;;32.50;99.90;;;;;;5038000;28;20407;-67
2023/04/02 08:37:51;;;;;;;9.15;7.63;;;32.50;99.90;;;;;;5038856;28;20044;-67
2023/04/02 08:40:24;;;;;;;8.05;6.82;;;32.50;99.90;;;;;;5035130;28;20038;-67
2023/04/02 08:43:19;;;;;;;10.93;8.20;;;32.50;99.90;;;;;;5037564;28;20037;-67
2023/04/02 08:46:07;;;;;;;18.30;8.77;;;32.60;99.90;;;;;;5034455;28;20025;-67
2023/04/02 08:48:36;;;;;;;9.95;7.97;;;32.60;99.90;;;;;;5026343;28;20185;-67
2023/04/02 08:51:06;;;;;;;9.68;7.65;;;32.60;99.90;;;;;;5029661;28;20071;-66
2023/04/02 08:53:38;;;;;;;8.77;7.05;;;32.60;99.90;;;;;;5040960;28;20481;-67
2023/04/02 08:56:08;;;;;;;;;;;32.60;99.90;;;;;;5018844;28;20414;-67
2023/04/02 08:58:58;;;;;;;8.65;7.75;;;32.60;99.90;;;;;;5041970;28;19919;-67
2023/04/02 09:01:46;;;;;;;7.68;6.88;;;32.70;99.90;;;;;;5033613;28;20025;-67
2023/04/02 09:04:18;;;;;;;11.55;8.05;;;32.60;99.90;;;;;;5037275;28;20017;-68
2023/04/02 09:06:45;;;;;;;8.95;7.43;;;32.70;99.90;;;;;;5037394;28;20021;-68
2023/04/02 09:09:13;;;;;;;8.10;7.30;;;32.70;99.90;;;;;;5043478;28;20029;-68
2023/04/02 09:11:50;;;;;;;23.35;8.57;;;32.60;99.90;;;;;;5025705;28;20111;-68
2023/04/02 09:14:23;;;;;;;11.48;8.05;;;32.70;99.90;;;;;;5040283;28;20025;-67
2023/04/02 09:16:54;;;;;;;13.98;8.15;;;32.60;99.90;;;;;;5043040;28;20037;-67
2023/04/02 09:19:23;;;;;;;16.92;8.45;;;32.70;99.90;;;;;;5033545;28;20120;-66
2023/04/02 09:22:19;;;;;;;9.52;8.38;;;32.70;99.90;;;;;;5025072;28;20540;-67
2023/04/02 09:25:00;;;;;;;10.52;8.30;;;32.70;99.90;;;;;;5025926;28;20062;-69
2023/04/02 09:27:31;;;;;;;11.45;8.77;;;32.80;99.90;;;;;;5028786;28;20022;-68
2023/04/02 09:30:05;;;;;;;11.40;8.20;;;32.80;99.90;;;;;;5030427;28;20032;-66
2023/04/02 09:32:53;;;;;;;10.07;7.78;;;32.80;99.90;;;;;;5035197;28;20109;-67
2023/04/02 09:35:22;;;;;;;10.75;8.63;;;32.70;99.90;;;;;;5035032;28;20044;-67
2023/04/02 09:38:09;;;;;;;10.90;7.45;;;32.70;99.90;;;;;;5030228;28;20037;-67
2023/04/02 09:40:57;;;;;;;9.00;7.47;;;32.80;99.90;;;;;;5038576;28;20039;-67
2023/04/02 09:43:27;;;;;;;10.50;8.18;;;32.80;99.90;;;;;;5037537;28;20044;-66
2023/04/02 09:46:01;;;;;;;14.57;10.10;;;32.90;99.90;;;;;;5039949;28;20029;-67
2023/04/02 09:48:31;;;;;;;98.65;59.13;;;32.80;99.90;;;;;;5042459;28;20053;-67
2023/04/02 09:51:20;;;;;;;104.00;57.75;;;32.80;99.90;;;;;;5039606;28;20080;-66
2023/04/02 09:53:48;;;;;;;269.48;153.32;;;32.80;99.90;;;;;;5041335;28;20539;-68
2023/04/02 09:56:15;;;;;;;93.88;57.00;;;32.80;99.90;;;;;;5039745;28;20025;-67
2023/04/02 09:58:44;;;;;;;322.25;212.48;;;32.80;99.90;;;;;;5043405;28;20021;-68
2023/04/02 10:01:32;;;;;;;300.98;212.00;;;32.80;99.90;;;;;;5044392;28;20025;-67
2023/04/02 10:03:59;;;;;;;209.27;155.32;;;32.80;99.90;;;;;;5040952;28;20121;-67
2023/04/02 10:06:28;;;;;;;438.45;310.52;;;32.70;99.90;;;;;;5042692;28;20021;-68
2023/04/02 10:08:55;;;;;;;198.27;138.43;;;32.80;99.90;;;;;;5038515;28;20017;-67
2023/04/02 10:11:29;;;;;;;123.97;90.82;;;32.70;99.90;;;;;;5042900;28;20029;-68
2023/04/02 10:14:08;;;;;;;137.13;100.80;;;32.80;99.90;;;;;;5039192;28;20025;-68
2023/04/02 10:16:50;;;;;;;67.28;49.70;;;32.70;99.90;;;;;;5042352;28;20541;-68
2023/04/02 10:19:39;;;;;;;20.42;14.65;;;32.80;99.90;;;;;;5040166;28;20549;-67
2023/04/02 10:22:15;;;;;;;15.98;12.52;;;32.80;99.90;;;;;;5024886;28;20384;-67
2023/04/02 10:24:42;;;;;;;14.02;10.93;;;32.70;99.90;;;;;;5041199;28;20023;-66
2023/04/02 10:27:11;;;;;;;15.23;10.27;;;32.70;99.90;;;;;;5042488;28;20284;-67
2023/04/02 10:30:01;;;;;;;14.35;10.32;;;32.70;99.90;;;;;;5040331;28;20483;-67
2023/04/02 10:32:41;;;;;;;21.42;14.60;;;32.80;99.90;;;;;;5043001;28;20036;-67
2023/04/02 10:35:20;;;;;;;31.88;18.60;;;32.80;99.90;;;;;;5041740;28;20036;-66
2023/04/02 10:37:47;;;;;;;39.97;25.63;;;32.80;99.90;;;;;;5053999;28;20033;-68
2023/04/02 10:40:22;;;;;;;45.50;27.48;;;32.70;99.90;;;;;;5054234;28;20028;-68
2023/04/02 10:43:11;;;;;;;33.20;17.70;;;32.70;99.90;;;;;;5045034;28;20084;-68
2023/04/02 10:45:43;;;;;;;42.20;25.45;;;32.60;99.90;;;;;;5028253;28;20029;-66
2023/04/02 10:48:17;;;;;;;39.85;26.50;;;32.50;99.90;;;;;;5042340;28;20119;-69
2023/04/02 10:50:44;;;;;;;46.38;30.48;;;32.40;99.90;;;;;;5040274;28;20053;-68
2023/04/02 10:53:15;;;;;;;38.80;25.35;;;32.30;99.90;;;;;;5042565;28;20029;-68
2023/04/02 10:55:52;;;;;;;33.95;21.33;;;32.20;99.90;;;;;;5038657;28;20053;-70
2023/04/02 10:58:30;;;;;;;32.15;20.13;;;32.20;99.90;;;;;;5043440;28;20021;-71
2023/04/02 11:01:08;;;;;;;27.20;18.63;;;32.10;99.90;;;;;;5043351;28;20099;-69
2023/04/02 11:03:46;;;;;;;29.30;17.80;;;32.10;99.90;;;;;;5038781;28;20064;-68
2023/04/02 11:06:27;;;;;;;38.75;20.48;;;32.20;99.90;;;;;;5035564;28;20025;-69
2023/04/02 11:09:00;;;;;;;30.08;18.98;;;32.10;99.90;;;;;;5022672;28;20030;-70
2023/04/02 11:11:39;;;;;;;30.98;19.08;;;32.00;99.90;;;;;;5014123;28;20030;-70
2023/04/02 11:14:24;;;;;;;33.95;20.55;;;32.00;99.90;;;;;;5013933;28;20026;-69
2023/04/02 11:16:53;;;;;;;341.67;196.52;;;32.00;99.90;;;;;;5014035;28;20100;-69
2023/04/02 11:19:19;;;;;;;118.90;70.07;;;31.90;99.90;;;;;;5013717;28;20034;-70
2023/04/02 11:22:17;;;;;;;104.70;63.00;;;31.80;99.90;;;;;;5013288;28;20018;-70
2023/04/02 11:24:45;;;;;;;67.53;37.97;;;31.80;99.90;;;;;;5011530;28;20435;-69
2023/04/02 11:27:15;;;;;;;69.32;38.92;;;31.80;99.90;;;;;;5013750;28;20030;-68
2023/04/02 11:29:45;;;;;;;57.72;32.53;;;31.70;99.90;;;;;;5013748;28;20113;-68
2023/04/02 11:32:18;;;;;;;49.75;33.92;;;31.60;99.90;;;;;;5037144;28;20097;-69
2023/04/02 11:34:44;;;;;;;67.97;42.83;;;31.60;99.90;;;;;;5046386;28;20048;-70
2023/04/02 11:44:01;;;;;;;78.85;48.63;;;31.50;99.90;;;;;;5018617;28;20024;-70
2023/04/02 11:46:28;;;;;;;72.68;47.47;;;31.50;99.90;;;;;;5024159;28;20412;-68
2023/04/02 11:49:35;;;;;;;59.20;41.97;;;31.40;99.90;;;;;;5037065;28;20459;-68
2023/04/02 11:52:03;;;;;;;87.28;56.88;;;31.30;99.90;;;;;;5041500;28;20029;-68
2023/04/02 11:54:37;;;;;;;82.57;52.25;;;31.30;99.90;;;;;;5034311;28;20044;-72
2023/04/02 11:57:22;;;;;;;130.40;85.97;;;31.30;99.90;;;;;;5040744;28;20016;-69
2023/04/02 12:00:11;;;;;;;88.18;58.30;;;31.30;99.90;;;;;;5037686;28;20032;-69
2023/04/02 12:03:13;;;;;;;89.72;56.13;;;31.20;99.90;;;;;;5036051;28;20078;-71
2023/04/02 12:05:49;;;;;;;101.77;59.90;;;31.20;99.90;;;;;;5039483;28;20028;-73
2023/04/02 12:08:53;;;;;;;87.68;52.47;;;31.20;99.90;;;;;;5036510;28;20018;-69
2023/04/02 12:11:35;;;;;;;81.65;49.28;;;31.20;99.90;;;;;;5034582;28;20503;-71
2023/04/02 12:14:22;;;;;;;73.43;42.15;;;31.20;99.90;;;;;;5037982;28;20029;-70
2023/04/02 12:16:50;;;;;;;53.72;33.45;;;31.20;99.90;;;;;;5038218;28;20020;-72
2023/04/02 12:19:17;;;;;;;61.47;34.30;;;31.20;99.90;;;;;;5032771;28;20107;-71
2023/04/02 12:21:46;;;;;;;53.45;34.50;;;31.10;99.90;;;;;;5040583;28;20017;-72
2023/04/02 12:24:22;;;;;;;53.00;34.38;;;31.10;99.90;;;;;;5041819;28;20017;-69
2023/04/02 12:27:07;;;;;;;55.20;33.85;;;31.10;99.90;;;;;;5035125;28;20041;-70
2023/04/02 12:29:35;;;;;;;46.55;31.88;;;31.10;99.90;;;;;;5041078;28;20469;-72
2023/04/02 12:32:02;;;;;;;57.60;31.27;;;31.00;99.90;;;;;;5040839;28;20429;-71
2023/04/02 12:34:29;;;;;;;43.75;28.75;;;31.00;99.90;;;;;;5037615;28;20029;-72
2023/04/02 12:37:02;;;;;;;36.65;24.90;;;31.00;99.90;;;;;;5042072;28;20024;-73
2023/04/02 12:39:33;;;;;;;38.00;24.25;;;31.00;99.90;;;;;;5031265;28;20472;-72
2023/04/02 12:42:00;;;;;;;41.40;22.87;;;31.00;99.90;;;;;;5024879;28;20040;-71
2023/04/02 12:44:29;;;;;;;30.38;19.38;;;31.00;99.90;;;;;;5037042;28;20017;-74
2023/04/02 12:46:57;;;;;;;24.27;17.15;;;30.90;99.90;;;;;;5049482;28;20146;-69
2023/04/02 12:49:38;;;;;;;27.92;16.52;;;30.90;99.90;;;;;;5050336;28;20045;-73
2023/04/02 12:52:10;;;;;;;27.65;17.05;;;30.90;99.90;;;;;;5040640;28;20029;-69
2023/04/02 12:54:53;;;;;;;22.55;16.23;;;30.80;99.90;;;;;;5039447;28;20494;-71
2023/04/02 12:57:29;;;;;;;22.45;16.20;;;30.70;99.90;;;;;;5038020;28;20021;-71
2023/04/02 13:00:04;;;;;;;24.02;17.40;;;30.70;99.90;;;;;;5045771;28;20096;-72
2023/04/02 13:02:42;;;;;;;28.77;17.73;;;30.70;99.90;;;;;;5045730;28;20010;-73
2023/04/02 13:05:10;;;;;;;25.75;16.83;;;30.70;99.90;;;;;;5044560;28;20021;-71
2023/04/02 13:07:37;;;;;;;27.67;17.52;;;30.70;99.90;;;;;;5041133;28;20021;-70
2023/04/02 13:10:22;;;;;;;27.42;16.80;;;30.70;99.90;;;;;;5044625;28;20041;-73
2023/04/02 13:12:53;;;;;;;62.28;48.83;;;30.70;99.90;;;;;;5039883;28;20029;-72
2023/04/02 13:15:27;;;;;;;28.40;19.88;;;30.60;99.90;;;;;;5042253;28;20395;-73